Time;durP1;ratioP1;P1;durP2;ratioP2;P2;SDS_P1;SDS_P2;PMS_P1;PMS_P2;Temp;Humidity;BMP_temperature;BMP_pressure;BME280_temperature;BME280_humidity;BME280_pressure;Samples;Min_cycle;Max_cycle;Signal;HPM_P1;HPM_P2
2021/04/18 00:01:19;;;;;;;5.75;4.70;;;;;;;;;;4909047;29;20495;-87
2021/04/18 00:04:05;;;;;;;7.75;4.38;;;;;;;;;;4909772;29;20047;-86
2021/04/18 00:06:51;;;;;;;8.38;5.25;;;;;;;;;;4895431;29;20028;-88
2021/04/18 00:09:37;;;;;;;8.48;5.18;;;;;;;;;;4907751;29;20032;-87
2021/04/18 00:12:22;;;;;;;6.93;4.85;;;;;;;;;;4910915;29;20567;-88
2021/04/18 00:15:09;;;;;;;7.25;4.90;;;;;;;;;;4888227;29;20024;-87
2021/04/18 00:17:54;;;;;;;8.38;4.80;;;;;;;;;;4886104;29;20047;-87
2021/04/18 00:20:40;;;;;;;7.70;5.32;;;;;;;;;;4904960;29;20020;-87
2021/04/18 00:23:25;;;;;;;7.93;4.65;;;;;;;;;;4898865;29;20020;-86
2021/04/18 00:26:11;;;;;;;8.00;5.13;;;;;;;;;;4903224;29;20047;-87
2021/04/18 00:28:57;;;;;;;6.22;4.53;;;;;;;;;;4906983;29;20076;-87
2021/04/18 00:31:42;;;;;;;8.05;5.22;;;;;;;;;;4908311;29;20040;-86
2021/04/18 00:34:28;;;;;;;7.03;4.35;;;;;;;;;;4911015;29;20058;-88
2021/04/18 00:37:13;;;;;;;6.70;4.82;;;;;;;;;;4903445;29;20602;-89
2021/04/18 00:39:59;;;;;;;9.95;5.20;;;;;;;;;;4908543;29;20039;-88
2021/04/18 00:42:45;;;;;;;7.28;5.20;;;;;;;;;;4908217;29;20028;-87
2021/04/18 00:45:31;;;;;;;9.07;5.07;;;;;;;;;;4904814;29;20051;-88
2021/04/18 00:48:16;;;;;;;8.57;5.03;;;;;;;;;;4904506;29;20036;-87
2021/04/18 00:51:02;;;;;;;7.40;5.25;;;;;;;;;;4905025;29;20031;-86
2021/04/18 00:53:48;;;;;;;5.80;4.45;;;;;;;;;;4903863;29;20028;-86
2021/04/18 00:56:33;;;;;;;7.20;5.65;;;;;;;;;;4904547;29;20035;-86
2021/04/18 00:59:19;;;;;;;9.73;5.60;;;;;;;;;;4907321;29;20028;-89
2021/04/18 01:02:05;;;;;;;11.25;6.03;;;;;;;;;;4909071;29;20028;-86
2021/04/18 01:04:50;;;;;;;8.90;4.68;;;;;;;;;;4908838;29;20546;-87
2021/04/18 01:07:36;;;;;;;8.13;4.57;;;;;;;;;;4905230;29;20067;-86
2021/04/18 01:10:21;;;;;;;8.15;5.22;;;;;;;;;;4902819;29;20036;-86
2021/04/18 01:13:07;;;;;;;7.75;4.68;;;;;;;;;;4885903;29;20108;-86
2021/04/18 01:15:53;;;;;;;9.27;4.95;;;;;;;;;;4886149;29;20100;-86
2021/04/18 01:18:38;;;;;;;9.60;4.78;;;;;;;;;;4884732;29;20404;-84
2021/04/18 01:21:27;;;;;;;7.85;4.90;;;;;;;;;;4871510;29;20033;-85
2021/04/18 01:24:12;;;;;;;5.68;4.45;;;;;;;;;;4881653;29;20107;-85
2021/04/18 01:26:58;;;;;;;6.50;4.63;;;;;;;;;;4887329;29;20040;-85
2021/04/18 01:29:44;;;;;;;9.82;5.50;;;;;;;;;;4885556;29;20128;-86
2021/04/18 01:32:30;;;;;;;9.70;5.57;;;;;;;;;;4890045;29;20032;-87
2021/04/18 01:35:16;;;;;;;8.15;4.82;;;;;;;;;;4881534;29;20064;-86
2021/04/18 01:38:03;;;;;;;7.05;4.72;;;;;;;;;;4887169;29;20341;-86
2021/04/18 01:40:48;;;;;;;6.55;4.60;;;;;;;;;;4890060;29;20024;-87
2021/04/18 01:43:36;;;;;;;10.18;5.65;;;;;;;;;;4886805;29;20536;-87
2021/04/18 01:46:22;;;;;;;7.28;5.38;;;;;;;;;;4884105;29;20111;-87
2021/04/18 01:49:08;;;;;;;8.68;5.45;;;;;;;;;;4884340;29;20044;-87
2021/04/18 01:51:53;;;;;;;7.43;5.35;;;;;;;;;;4883865;29;20065;-87
2021/04/18 01:54:39;;;;;;;7.55;5.40;;;;;;;;;;4888445;29;20440;-88
2021/04/18 01:57:24;;;;;;;7.80;5.18;;;;;;;;;;4887247;29;20031;-88
2021/04/18 02:00:11;;;;;;;8.57;5.85;;;;;;;;;;4887680;29;20440;-87
2021/04/18 02:02:57;;;;;;;8.60;5.43;;;;;;;;;;4889705;29;20245;-88
2021/04/18 02:05:43;;;;;;;7.97;5.38;;;;;;;;;;4890482;29;20029;-88
2021/04/18 02:08:28;;;;;;;7.75;5.35;;;;;;;;;;4888583;29;20024;-88
2021/04/18 02:11:14;;;;;;;10.70;6.00;;;;;;;;;;4891736;29;20051;-87
2021/04/18 02:14:00;;;;;;;8.20;5.50;;;;;;;;;;4899776;29;20070;-87
2021/04/18 02:16:45;;;;;;;10.88;6.05;;;;;;;;;;4889684;29;20119;-87
2021/04/18 02:19:31;;;;;;;10.80;5.82;;;;;;;;;;4906190;29;20035;-88
2021/04/18 02:22:17;;;;;;;9.18;6.15;;;;;;;;;;4907629;29;20035;-88
2021/04/18 02:25:03;;;;;;;9.05;5.93;;;;;;;;;;4908723;29;20538;-86
2021/04/18 02:27:49;;;;;;;9.40;5.55;;;;;;;;;;4904284;29;20436;-87
2021/04/18 02:30:34;;;;;;;9.57;5.72;;;;;;;;;;4913016;29;20039;-87
2021/04/18 02:33:20;;;;;;;9.07;5.85;;;;;;;;;;4912792;29;20031;-87
2021/04/18 02:36:06;;;;;;;10.82;6.10;;;;;;;;;;4906004;29;20483;-87
2021/04/18 02:38:51;;;;;;;8.52;5.90;;;;;;;;;;4910106;29;20476;-87
2021/04/18 02:41:37;;;;;;;8.35;6.55;;;;;;;;;;4905393;29;20535;-87
2021/04/18 02:44:23;;;;;;;9.05;6.07;;;;;;;;;;4904180;29;20842;-87
2021/04/18 02:47:08;;;;;;;12.45;6.43;;;;;;;;;;4906279;29;20032;-87
2021/04/18 02:49:54;;;;;;;10.30;5.75;;;;;;;;;;4903409;29;20092;-87
2021/04/18 02:52:39;;;;;;;8.27;5.57;;;;;;;;;;4909881;29;20029;-86
2021/04/18 02:55:25;;;;;;;10.10;5.72;;;;;;;;;;4907691;29;20035;-87
2021/04/18 02:58:10;;;;;;;13.38;5.97;;;;;;;;;;4906938;29;20028;-88
2021/04/18 03:00:56;;;;;;;10.68;6.80;;;;;;;;;;4909825;29;20054;-89
2021/04/18 03:03:41;;;;;;;9.82;6.72;;;;;;;;;;4910891;29;20498;-86
2021/04/18 03:06:27;;;;;;;11.23;6.57;;;;;;;;;;4910403;29;20062;-86
2021/04/18 03:09:13;;;;;;;9.52;6.10;;;;;;;;;;4901800;29;20028;-85
2021/04/18 03:11:58;;;;;;;9.50;5.45;;;;;;;;;;4903392;29;20136;-86
2021/04/18 03:14:44;;;;;;;8.52;6.35;;;;;;;;;;4907683;29;20043;-87
2021/04/18 03:17:32;;;;;;;8.75;6.15;;;;;;;;;;4905751;29;20032;-88
2021/04/18 03:20:18;;;;;;;9.20;6.25;;;;;;;;;;4891085;29;20406;-87
2021/04/18 03:23:03;;;;;;;8.30;6.00;;;;;;;;;;4894157;29;20035;-87
2021/04/18 03:25:49;;;;;;;7.95;5.47;;;;;;;;;;4909747;29;20032;-87
2021/04/18 03:28:34;;;;;;;11.63;6.93;;;;;;;;;;4910453;29;20402;-88
2021/04/18 03:31:20;;;;;;;13.75;6.93;;;;;;;;;;4911532;29;20092;-88
2021/04/18 03:34:08;;;;;;;9.30;5.80;;;;;;;;;;4908205;29;20034;-88
2021/04/18 03:36:53;;;;;;;8.13;5.50;;;;;;;;;;4890131;29;20059;-87
2021/04/18 03:39:39;;;;;;;8.00;5.65;;;;;;;;;;4906131;29;20024;-87
2021/04/18 03:42:25;;;;;;;12.25;6.32;;;;;;;;;;4902128;29;20016;-87
2021/04/18 03:45:11;;;;;;;9.63;6.20;;;;;;;;;;4904914;29;20020;-88
2021/04/18 03:47:56;;;;;;;8.93;6.13;;;;;;;;;;4902433;29;20103;-87
2021/04/18 03:50:42;;;;;;;8.85;6.40;;;;;;;;;;4906640;29;20486;-88
2021/04/18 03:53:27;;;;;;;8.43;6.25;;;;;;;;;;4909095;29;20032;-87
2021/04/18 03:56:13;;;;;;;8.63;6.25;;;;;;;;;;4908463;29;20430;-88
2021/04/18 03:58:59;;;;;;;9.40;7.15;;;;;;;;;;4908555;29;20467;-87
2021/04/18 04:01:44;;;;;;;10.55;7.18;;;;;;;;;;4907784;29;20036;-88
2021/04/18 04:04:30;;;;;;;10.50;6.70;;;;;;;;;;4904626;29;20039;-87
2021/04/18 04:07:16;;;;;;;9.50;5.80;;;;;;;;;;4903747;29;20480;-88
2021/04/18 04:10:04;;;;;;;16.15;7.68;;;;;;;;;;4907053;29;20095;-87
2021/04/18 04:12:50;;;;;;;10.50;7.50;;;;;;;;;;4902104;29;20036;-88
2021/04/18 04:15:35;;;;;;;10.38;6.63;;;;;;;;;;4907504;29;20456;-88
2021/04/18 04:18:21;;;;;;;8.18;6.18;;;;;;;;;;4910583;29;20039;-87
2021/04/18 04:21:06;;;;;;;9.25;5.80;;;;;;;;;;4906374;29;20028;-87
2021/04/18 04:23:52;;;;;;;9.65;7.00;;;;;;;;;;4907585;29;20024;-87
2021/04/18 04:26:38;;;;;;;9.32;6.90;;;;;;;;;;4908478;29;20044;-87
2021/04/18 04:29:23;;;;;;;11.23;6.93;;;;;;;;;;4911883;29;20565;-88
2021/04/18 04:32:09;;;;;;;11.95;6.80;;;;;;;;;;4908639;29;20059;-88
2021/04/18 04:34:55;;;;;;;10.05;6.70;;;;;;;;;;4907774;29;20027;-89
2021/04/18 04:37:41;;;;;;;9.85;6.07;;;;;;;;;;4909293;29;20084;-88
2021/04/18 04:40:26;;;;;;;10.55;6.13;;;;;;;;;;4910626;29;20119;-89
2021/04/18 04:43:12;;;;;;;11.18;6.80;;;;;;;;;;4905632;29;20024;-87
2021/04/18 04:45:58;;;;;;;12.57;6.97;;;;;;;;;;4902667;29;20058;-88
2021/04/18 04:48:43;;;;;;;9.77;6.53;;;;;;;;;;4906905;29;20040;-87
2021/04/18 04:51:29;;;;;;;10.15;7.43;;;;;;;;;;4903398;29;20028;-85
2021/04/18 04:54:14;;;;;;;11.50;7.07;;;;;;;;;;4900702;29;20043;-86
2021/04/18 04:57:00;;;;;;;11.80;7.72;;;;;;;;;;4904223;29;20028;-87
2021/04/18 04:59:45;;;;;;;11.32;7.20;;;;;;;;;;4906681;29;20036;-85
2021/04/18 05:02:31;;;;;;;14.13;9.02;;;;;;;;;;4910366;29;20762;-86
2021/04/18 05:05:17;;;;;;;10.38;7.32;;;;;;;;;;4895135;29;20072;-88
2021/04/18 05:08:02;;;;;;;12.25;7.65;;;;;;;;;;4907015;29;20111;-85
2021/04/18 05:10:48;;;;;;;11.07;6.68;;;;;;;;;;4908901;29;20051;-85
2021/04/18 05:13:33;;;;;;;8.85;6.10;;;;;;;;;;4910034;29;20024;-85
2021/04/18 05:16:19;;;;;;;11.75;7.53;;;;;;;;;;4909798;29;20028;-85
2021/04/18 05:19:05;;;;;;;8.18;6.03;;;;;;;;;;4903229;29;20486;-85
2021/04/18 05:21:50;;;;;;;10.23;6.97;;;;;;;;;;4907730;29;20028;-85
2021/04/18 05:24:36;;;;;;;10.45;7.40;;;;;;;;;;4905482;29;20024;-84
2021/04/18 05:27:21;;;;;;;10.85;7.25;;;;;;;;;;4887628;29;20042;-85
2021/04/18 05:30:08;;;;;;;9.50;6.80;;;;;;;;;;4903548;29;20090;-85
2021/04/18 05:32:54;;;;;;;11.52;6.90;;;;;;;;;;4902481;29;20020;-86
2021/04/18 05:35:39;;;;;;;12.85;8.35;;;;;;;;;;4903377;29;20491;-85
2021/04/18 05:38:25;;;;;;;10.25;7.68;;;;;;;;;;4905074;29;20113;-86
2021/04/18 05:41:10;;;;;;;10.70;8.10;;;;;;;;;;4900716;29;20056;-86
2021/04/18 05:43:56;;;;;;;10.85;7.45;;;;;;;;;;4905126;29;20411;-86
2021/04/18 05:46:42;;;;;;;12.50;8.25;;;;;;;;;;4907930;29;20036;-86
2021/04/18 05:49:27;;;;;;;13.10;8.77;;;;;;;;;;4905247;29;20028;-89
2021/04/18 05:52:13;;;;;;;12.18;7.82;;;;;;;;;;4909026;29;20103;-88
2021/04/18 05:54:59;;;;;;;12.43;9.00;;;;;;;;;;4905427;29;20020;-87
2021/04/18 05:57:44;;;;;;;10.13;7.55;;;;;;;;;;4908488;29;20031;-88
2021/04/18 06:00:30;;;;;;;12.35;7.55;;;;;;;;;;4894672;29;20040;-86
2021/04/18 06:03:15;;;;;;;9.90;6.97;;;;;;;;;;4905199;29;20032;-86
2021/04/18 06:06:01;;;;;;;12.00;8.25;;;;;;;;;;4907590;29;20434;-86
2021/04/18 06:08:47;;;;;;;12.20;9.07;;;;;;;;;;4913261;29;20098;-85
2021/04/18 06:11:32;;;;;;;10.65;8.38;;;;;;;;;;4887946;29;20048;-85
2021/04/18 06:14:18;;;;;;;13.48;9.07;;;;;;;;;;4904946;29;20049;-84
2021/04/18 06:17:04;;;;;;;13.82;8.88;;;;;;;;;;4906430;29;20107;-86
2021/04/18 06:19:49;;;;;;;11.60;6.93;;;;;;;;;;4904303;29;20032;-85
2021/04/18 06:22:35;;;;;;;12.52;8.45;;;;;;;;;;4904268;29;20498;-85
2021/04/18 06:25:20;;;;;;;9.77;7.80;;;;;;;;;;4912571;29;20058;-84
2021/04/18 06:28:06;;;;;;;11.52;7.72;;;;;;;;;;4911797;29;20078;-85
2021/04/18 06:30:52;;;;;;;11.88;8.15;;;;;;;;;;4911401;29;20483;-86
2021/04/18 06:33:37;;;;;;;10.13;7.70;;;;;;;;;;4910697;29;20035;-87
2021/04/18 06:36:23;;;;;;;11.43;8.00;;;;;;;;;;4911655;29;20028;-86
2021/04/18 06:39:08;;;;;;;10.60;8.27;;;;;;;;;;4910269;29;20096;-86
2021/04/18 06:41:58;;;;;;;12.57;8.60;;;;;;;;;;4910541;29;20028;-87
2021/04/18 06:44:44;;;;;;;11.63;7.50;;;;;;;;;;4908461;29;20040;-86
2021/04/18 06:47:30;;;;;;;10.63;7.68;;;;;;;;;;4916704;29;20491;-84
2021/04/18 06:50:16;;;;;;;11.93;7.72;;;;;;;;;;4901653;29;20163;-85
2021/04/18 06:53:02;;;;;;;9.13;6.90;;;;;;;;;;4902146;29;20039;-85
2021/04/18 06:55:47;;;;;;;11.57;7.13;;;;;;;;;;4905094;29;20024;-84
2021/04/18 06:58:33;;;;;;;11.70;7.88;;;;;;;;;;4886089;29;20449;-85
2021/04/18 07:01:19;;;;;;;10.57;7.32;;;;;;;;;;4908543;29;20024;-84
2021/04/18 07:04:07;;;;;;;10.10;7.10;;;;;;;;;;4908431;29;20036;-87
2021/04/18 07:06:54;;;;;;;10.35;7.68;;;;;;;;;;4910661;29;20039;-87
2021/04/18 07:09:42;;;;;;;14.80;9.07;;;;;;;;;;4911226;29;20600;-87
2021/04/18 07:12:32;;;;;;;11.63;8.50;;;;;;;;;;4907605;29;20036;-84
2021/04/18 07:15:33;;;;;;;10.88;7.47;;;;;;;;;;4905708;29;20028;-85
2021/04/18 07:18:40;;;;;;;11.00;7.50;;;;;;;;;;4904312;29;20039;-87
2021/04/18 07:21:45;;;;;;;12.77;8.23;;;;;;;;;;4905340;29;20036;-86
2021/04/18 07:24:32;;;;;;;12.25;9.32;;;;;;;;;;4890056;29;20032;-85
2021/04/18 07:27:18;;;;;;;9.82;8.25;;;;;;;;;;4903883;29;20407;-85
2021/04/18 07:30:04;;;;;;;11.82;8.50;;;;;;;;;;4903728;29;20028;-87
2021/04/18 07:33:05;;;;;;;13.57;9.00;;;;;;;;;;4907348;29;20025;-85
2021/04/18 07:35:51;;;;;;;12.25;9.20;;;;;;;;;;4910368;29;20061;-88
2021/04/18 07:38:37;;;;;;;12.65;8.65;;;;;;;;;;4910199;29;20031;-87
2021/04/18 07:41:23;;;;;;;14.43;9.40;;;;;;;;;;4908315;29;20135;-88
2021/04/18 07:44:15;;;;;;;17.02;10.38;;;;;;;;;;4910773;29;20502;-91
2021/04/18 07:47:01;;;;;;;13.80;9.02;;;;;;;;;;4899762;29;20460;-89
2021/04/18 07:49:46;;;;;;;17.17;9.73;;;;;;;;;;4909814;29;20028;-88
2021/04/18 07:52:32;;;;;;;14.82;9.88;;;;;;;;;;4908187;29;20032;-87
2021/04/18 07:55:19;;;;;;;13.02;8.63;;;;;;;;;;4909217;29;20164;-90
2021/04/18 07:58:04;;;;;;;12.50;8.65;;;;;;;;;;4906953;29;20012;-88
2021/04/18 08:00:50;;;;;;;14.32;9.32;;;;;;;;;;4908136;29;20059;-89
2021/04/18 08:03:36;;;;;;;13.82;9.20;;;;;;;;;;4904269;29;20024;-88
2021/04/18 08:06:26;;;;;;;15.27;9.90;;;;;;;;;;4904833;29;20703;-89
2021/04/18 08:09:21;;;;;;;15.35;8.80;;;;;;;;;;4900633;29;20040;-89
2021/04/18 08:12:07;;;;;;;11.80;7.20;;;;;;;;;;4910543;29;20059;-90
2021/04/18 08:15:12;;;;;;;10.77;7.05;;;;;;;;;;4908906;29;20054;-87
2021/04/18 08:18:04;;;;;;;11.25;7.75;;;;;;;;;;4907169;29;20051;-87
2021/04/18 08:20:49;;;;;;;12.50;8.52;;;;;;;;;;4907143;29;20024;-87
2021/04/18 08:23:38;;;;;;;19.10;13.95;;;;;;;;;;4907401;29;20666;-87
2021/04/18 08:26:26;;;;;;;30.92;24.05;;;;;;;;;;4893994;29;20309;-89
2021/04/18 08:29:12;;;;;;;19.17;13.75;;;;;;;;;;4908165;29;20043;-87
2021/04/18 08:32:09;;;;;;;14.18;9.10;;;;;;;;;;4906691;29;20040;-88
2021/04/18 08:35:09;;;;;;;11.88;7.65;;;;;;;;;;4906508;29;20020;-90
2021/04/18 08:38:13;;;;;;;12.35;8.68;;;;;;;;;;4891696;29;20464;-87
2021/04/18 08:41:05;;;;;;;15.43;9.23;;;;;;;;;;4903586;29;20099;-86
2021/04/18 08:44:11;;;;;;;12.52;7.68;;;;;;;;;;4901300;29;20028;-85
2021/04/18 08:47:04;;;;;;;13.57;7.55;;;;;;;;;;4902432;29;20027;-82
2021/04/18 08:49:50;;;;;;;11.18;7.20;;;;;;;;;;4902145;29;20423;-81
2021/04/18 08:52:36;;;;;;;32.95;23.00;;;;;;;;;;4905025;29;20404;-83
2021/04/18 08:55:22;;;;;;;88.22;65.53;;;;;;;;;;4908829;29;20024;-82
2021/04/18 08:58:07;;;;;;;21.23;16.10;;;;;;;;;;4907574;29;20530;-82
2021/04/18 09:01:01;;;;;;;12.43;7.78;;;;;;;;;;4911114;29;20032;-83
2021/04/18 09:03:58;;;;;;;13.35;6.90;;;;;;;;;;4909780;29;20398;-81
2021/04/18 09:06:47;;;;;;;11.38;6.40;;;;;;;;;;4905481;29;20031;-82
2021/04/18 09:09:32;;;;;;;10.18;6.32;;;;;;;;;;4900811;29;20530;-82
2021/04/18 09:12:18;;;;;;;10.48;6.20;;;;;;;;;;4898878;29;20103;-81
2021/04/18 09:15:05;;;;;;;13.65;5.93;;;;;;;;;;4896833;29;20138;-81
2021/04/18 09:17:50;;;;;;;10.50;5.57;;;;;;;;;;4905507;29;20619;-81
2021/04/18 09:20:36;;;;;;;10.30;6.13;;;;;;;;;;4906567;29;20689;-81
2021/04/18 09:23:21;;;;;;;11.32;6.05;;;;;;;;;;4898596;29;20398;-81
2021/04/18 09:26:33;;;;;;;9.10;6.28;;;;;;;;;;4898710;29;20535;-83
2021/04/18 09:29:19;;;;;;;10.95;6.28;;;;;;;;;;4907102;29;20032;-82
2021/04/18 09:32:10;;;;;;;10.80;5.72;;;;;;;;;;4905868;29;20036;-81
2021/04/18 09:34:56;;;;;;;12.73;6.65;;;;;;;;;;4900908;29;20715;-82
2021/04/18 09:37:42;;;;;;;12.45;6.88;;;;;;;;;;4904152;29;20443;-81
2021/04/18 09:40:29;;;;;;;13.20;6.72;;;;;;;;;;4909674;29;20673;-81
2021/04/18 09:43:21;;;;;;;11.50;6.90;;;;;;;;;;4899772;29;20044;-82
2021/04/18 09:46:10;;;;;;;12.75;6.93;;;;;;;;;;4910918;29;20141;-81
2021/04/18 09:48:59;;;;;;;10.77;6.25;;;;;;;;;;4911796;29;20447;-82
2021/04/18 09:52:11;;;;;;;14.85;6.80;;;;;;;;;;4911994;29;20064;-82
2021/04/18 09:55:06;;;;;;;12.57;6.85;;;;;;;;;;4910718;29;20028;-83
2021/04/18 09:57:56;;;;;;;12.93;7.10;;;;;;;;;;4914546;29;20605;-83
2021/04/18 10:00:41;;;;;;;13.23;7.28;;;;;;;;;;4914015;29;20106;-83
2021/04/18 10:03:34;;;;;;;13.48;6.90;;;;;;;;;;4913321;29;20032;-84
2021/04/18 10:06:23;;;;;;;10.10;6.90;;;;;;;;;;4910934;29;20059;-80
2021/04/18 10:09:08;;;;;;;16.93;7.53;;;;;;;;;;4908756;29;20031;-83
2021/04/18 10:11:58;;;;;;;10.45;7.20;;;;;;;;;;4913618;29;20296;-82
2021/04/18 10:14:44;;;;;;;11.07;6.68;;;;;;;;;;4915467;29;20028;-82
2021/04/18 10:17:34;;;;;;;14.55;7.72;;;;;;;;;;4898234;29;20031;-83
2021/04/18 10:20:25;;;;;;;14.75;7.53;;;;;;;;;;4913761;29;20066;-85
2021/04/18 10:23:10;;;;;;;14.38;8.05;;;;;;;;;;4912323;29;20062;-86
2021/04/18 10:25:57;;;;;;;13.73;7.78;;;;;;;;;;4906361;29;20103;-86
2021/04/18 10:28:42;;;;;;;22.10;15.52;;;;;;;;;;4913663;29;20028;-86
2021/04/18 10:31:32;;;;;;;17.60;9.25;;;;;;;;;;4898367;29;20047;-85
2021/04/18 10:34:18;;;;;;;15.85;8.90;;;;;;;;;;4909433;29;20035;-85
2021/04/18 10:37:04;;;;;;;13.85;6.95;;;;;;;;;;4905147;29;20062;-85
2021/04/18 10:39:52;;;;;;;12.32;7.65;;;;;;;;;;4904521;29;20519;-85
2021/04/18 10:42:38;;;;;;;12.27;8.75;;;;;;;;;;4912503;29;20096;-83
2021/04/18 10:45:24;;;;;;;15.35;8.98;;;;;;;;;;4911612;29;20028;-83
2021/04/18 10:48:12;;;;;;;14.65;8.20;;;;;;;;;;4909578;29;20032;-87
2021/04/18 10:51:07;;;;;;;12.38;7.55;;;;;;;;;;4905378;29;20565;-89
2021/04/18 10:53:53;;;;;;;13.05;8.43;;;;;;;;;;4904649;29;20087;-84
2021/04/18 10:56:39;;;;;;;14.65;8.38;;;;;;;;;;4910851;29;20054;-83
2021/04/18 10:59:25;;;;;;;16.45;9.13;;;;;;;;;;4906200;29;20020;-83
2021/04/18 11:02:10;;;;;;;13.35;8.98;;;;;;;;;;4888927;29;20028;-85
2021/04/18 11:04:56;;;;;;;15.05;8.82;;;;;;;;;;4899109;29;20381;-85
2021/04/18 11:07:42;;;;;;;12.63;8.10;;;;;;;;;;4909601;29;20060;-88
2021/04/18 11:10:27;;;;;;;12.30;8.02;;;;;;;;;;4908081;29;20035;-82
2021/04/18 11:13:13;;;;;;;13.15;8.48;;;;;;;;;;4905210;29;20452;-82
2021/04/18 11:16:02;;;;;;;12.00;8.27;;;;;;;;;;4905638;29;20032;-82
2021/04/18 11:18:47;;;;;;;11.20;7.72;;;;;;;;;;4906697;29;20020;-83
2021/04/18 11:21:33;;;;;;;13.90;8.27;;;;;;;;;;4911290;29;20051;-82
2021/04/18 11:24:19;;;;;;;11.73;7.82;;;;;;;;;;4904632;29;20032;-84
2021/04/18 11:27:04;;;;;;;14.27;7.68;;;;;;;;;;4900629;29;20121;-83
2021/04/18 11:29:50;;;;;;;14.07;7.55;;;;;;;;;;4905054;29;20411;-84
2021/04/18 11:32:36;;;;;;;11.85;7.78;;;;;;;;;;4908417;29;20024;-83
2021/04/18 11:35:21;;;;;;;11.45;7.53;;;;;;;;;;4895997;29;20059;-82
2021/04/18 11:38:07;;;;;;;13.80;7.82;;;;;;;;;;4902902;29;20024;-82
2021/04/18 11:40:52;;;;;;;10.48;7.03;;;;;;;;;;4905463;29;20028;-83
2021/04/18 11:43:38;;;;;;;10.85;7.47;;;;;;;;;;4909788;29;20039;-83
2021/04/18 11:46:25;;;;;;;11.23;7.03;;;;;;;;;;4908500;29;20244;-83
2021/04/18 11:49:11;;;;;;;10.07;6.13;;;;;;;;;;4899403;29;20028;-82
2021/04/18 11:51:56;;;;;;;11.10;6.85;;;;;;;;;;4903179;29;20043;-83
2021/04/18 11:54:42;;;;;;;11.00;7.30;;;;;;;;;;4908445;29;20032;-83
2021/04/18 11:57:31;;;;;;;10.15;6.82;;;;;;;;;;4907313;29;20111;-84
2021/04/18 12:00:17;;;;;;;9.90;6.82;;;;;;;;;;4902749;29;20075;-83
2021/04/18 12:03:03;;;;;;;12.70;6.95;;;;;;;;;;4906687;29;20040;-82
2021/04/18 12:05:48;;;;;;;10.25;6.97;;;;;;;;;;4906793;29;20040;-83
2021/04/18 12:08:35;;;;;;;14.07;7.20;;;;;;;;;;4901582;29;20059;-83
2021/04/18 12:11:20;;;;;;;11.75;6.60;;;;;;;;;;4903912;29;20047;-82
2021/04/18 12:14:06;;;;;;;11.23;7.15;;;;;;;;;;4904813;29;20519;-82
2021/04/18 12:16:51;;;;;;;12.88;7.68;;;;;;;;;;4905700;29;20450;-83
2021/04/18 12:19:37;;;;;;;11.02;7.07;;;;;;;;;;4908073;29;20059;-85
2021/04/18 12:22:23;;;;;;;11.20;7.15;;;;;;;;;;4908862;29;20040;-84
2021/04/18 12:25:11;;;;;;;13.07;6.82;;;;;;;;;;4906019;29;20036;-82
2021/04/18 12:27:57;;;;;;;12.98;7.13;;;;;;;;;;4908881;29;20103;-83
2021/04/18 12:30:43;;;;;;;10.20;6.80;;;;;;;;;;4887685;29;20527;-82
2021/04/18 12:33:28;;;;;;;10.93;7.65;;;;;;;;;;4899079;29;20380;-84
2021/04/18 12:36:14;;;;;;;8.93;6.35;;;;;;;;;;4905412;29;20059;-82
2021/04/18 12:38:59;;;;;;;11.23;6.75;;;;;;;;;;4903813;29;20690;-83
2021/04/18 12:41:45;;;;;;;12.70;7.50;;;;;;;;;;4907904;29;20107;-81
2021/04/18 12:44:31;;;;;;;10.60;6.43;;;;;;;;;;4908074;29;20028;-82
2021/04/18 12:47:17;;;;;;;11.75;7.03;;;;;;;;;;4902713;29;20036;-82
2021/04/18 12:50:03;;;;;;;12.43;7.32;;;;;;;;;;4902566;29;20024;-82
2021/04/18 12:52:49;;;;;;;12.05;7.85;;;;;;;;;;4903985;29;20510;-81
2021/04/18 12:55:37;;;;;;;11.40;7.30;;;;;;;;;;4906126;29;20064;-81
2021/04/18 12:58:22;;;;;;;10.80;7.50;;;;;;;;;;4908640;29;20124;-82
2021/04/18 13:01:08;;;;;;;11.82;7.32;;;;;;;;;;4901548;29;20497;-81
2021/04/18 13:03:54;;;;;;;13.30;7.40;;;;;;;;;;4904807;29;20031;-82
2021/04/18 13:06:39;;;;;;;10.90;7.22;;;;;;;;;;4902467;29;20380;-82
2021/04/18 13:09:25;;;;;;;9.65;6.78;;;;;;;;;;4901879;29;20032;-82
2021/04/18 13:12:10;;;;;;;11.60;7.18;;;;;;;;;;4905703;29;20055;-82
2021/04/18 13:14:58;;;;;;;11.85;7.45;;;;;;;;;;4904486;29;20099;-82
2021/04/18 13:17:44;;;;;;;14.93;10.38;;;;;;;;;;4899705;29;20095;-81
2021/04/18 13:20:29;;;;;;;13.82;8.40;;;;;;;;;;4909168;29;20043;-82
2021/04/18 13:23:15;;;;;;;11.60;7.03;;;;;;;;;;4906609;29;20059;-85
2021/04/18 13:26:01;;;;;;;12.55;6.72;;;;;;;;;;4902290;29;20450;-87
2021/04/18 13:28:46;;;;;;;10.75;6.95;;;;;;;;;;4904629;29;20032;-81
2021/04/18 13:31:32;;;;;;;13.13;7.47;;;;;;;;;;4908899;29;20036;-81
2021/04/18 13:34:18;;;;;;;10.23;6.95;;;;;;;;;;4907238;29;20024;-80
2021/04/18 13:37:03;;;;;;;11.73;6.68;;;;;;;;;;4879100;29;20975;-80
2021/04/18 13:39:49;;;;;;;10.70;6.90;;;;;;;;;;4889058;29;20032;-80
2021/04/18 13:42:35;;;;;;;10.23;6.55;;;;;;;;;;4902164;29;20470;-81
2021/04/18 13:45:21;;;;;;;11.77;7.32;;;;;;;;;;4898134;29;20024;-81
2021/04/18 13:48:06;;;;;;;10.68;7.38;;;;;;;;;;4883401;29;21209;-82
2021/04/18 13:50:52;;;;;;;10.02;6.22;;;;;;;;;;4884540;29;20071;-81
2021/04/18 13:53:38;;;;;;;11.02;6.60;;;;;;;;;;4900279;29;20020;-81
2021/04/18 13:56:23;;;;;;;11.60;6.35;;;;;;;;;;4901405;29;20032;-82
2021/04/18 13:59:09;;;;;;;10.35;6.28;;;;;;;;;;4903654;29;20064;-83
2021/04/18 14:01:54;;;;;;;8.32;6.00;;;;;;;;;;4895448;29;20510;-81
2021/04/18 14:04:40;;;;;;;10.05;6.60;;;;;;;;;;4902169;29;20542;-81
2021/04/18 14:07:26;;;;;;;11.55;7.50;;;;;;;;;;4900543;29;20024;-83
2021/04/18 14:10:11;;;;;;;13.68;6.88;;;;;;;;;;4902257;29;20043;-80
2021/04/18 14:12:59;;;;;;;10.30;6.43;;;;;;;;;;4906096;29;20052;-82
2021/04/18 14:15:44;;;;;;;10.60;7.40;;;;;;;;;;4891248;29;20039;-82
2021/04/18 14:18:30;;;;;;;9.82;6.20;;;;;;;;;;4901542;29;20032;-81
2021/04/18 14:21:16;;;;;;;11.40;7.25;;;;;;;;;;4905985;29;20119;-82
2021/04/18 14:24:01;;;;;;;13.00;6.70;;;;;;;;;;4889642;29;20067;-81
2021/04/18 14:26:47;;;;;;;13.57;7.00;;;;;;;;;;4898675;29;20028;-81
2021/04/18 14:29:33;;;;;;;10.93;6.65;;;;;;;;;;4910238;29;20479;-83
2021/04/18 14:32:19;;;;;;;11.30;6.32;;;;;;;;;;4909545;29;20042;-84
2021/04/18 14:35:05;;;;;;;10.50;6.63;;;;;;;;;;4906434;29;20034;-84
2021/04/18 14:37:50;;;;;;;17.55;7.47;;;;;;;;;;4907398;29;20051;-83
2021/04/18 14:40:36;;;;;;;67.00;53.17;;;;;;;;;;4891657;29;20063;-84
2021/04/18 14:43:22;;;;;;;17.73;12.25;;;;;;;;;;4903749;29;20038;-86
2021/04/18 14:46:08;;;;;;;20.77;10.48;;;;;;;;;;4909469;29;20024;-80
2021/04/18 14:48:53;;;;;;;13.45;7.38;;;;;;;;;;4893000;29;20040;-79
2021/04/18 14:51:39;;;;;;;11.30;6.20;;;;;;;;;;4903664;29;20032;-81
2021/04/18 14:54:25;;;;;;;13.15;6.95;;;;;;;;;;4901421;29;20040;-81
2021/04/18 14:57:10;;;;;;;11.32;6.88;;;;;;;;;;4905299;29;20190;-79
2021/04/18 14:59:56;;;;;;;10.48;6.72;;;;;;;;;;4906710;29;20432;-80
2021/04/18 15:02:41;;;;;;;11.68;6.93;;;;;;;;;;4908114;29;20024;-79
2021/04/18 15:05:27;;;;;;;10.10;7.35;;;;;;;;;;4909804;29;20385;-80
2021/04/18 15:08:13;;;;;;;14.75;7.88;;;;;;;;;;4907160;29;20060;-79
2021/04/18 15:10:58;;;;;;;12.05;6.75;;;;;;;;;;4894266;29;20071;-80
2021/04/18 15:13:44;;;;;;;12.13;7.75;;;;;;;;;;4904395;29;20036;-79
2021/04/18 15:16:29;;;;;;;13.02;7.38;;;;;;;;;;4907372;29;20035;-79
2021/04/18 15:19:15;;;;;;;12.02;7.45;;;;;;;;;;4907751;29;20046;-79
2021/04/18 15:22:01;;;;;;;9.85;6.70;;;;;;;;;;4908666;29;20035;-80
2021/04/18 15:24:49;;;;;;;12.95;7.72;;;;;;;;;;4906556;29;20036;-79
2021/04/18 15:27:35;;;;;;;10.23;6.50;;;;;;;;;;4910751;29;20028;-81
2021/04/18 15:30:21;;;;;;;12.75;7.82;;;;;;;;;;4904074;29;20032;-81
2021/04/18 15:33:06;;;;;;;13.18;7.05;;;;;;;;;;4893431;29;20445;-80
2021/04/18 15:35:52;;;;;;;14.35;9.93;;;;;;;;;;4907457;29;20027;-79
2021/04/18 15:38:38;;;;;;;30.83;24.00;;;;;;;;;;4908086;29;20031;-81
2021/04/18 15:41:24;;;;;;;12.75;9.13;;;;;;;;;;4909796;29;20080;-80
2021/04/18 15:44:10;;;;;;;13.50;8.20;;;;;;;;;;4905335;29;20032;-80
2021/04/18 15:46:56;;;;;;;10.90;7.63;;;;;;;;;;4903924;29;20032;-80
2021/04/18 15:49:42;;;;;;;14.40;8.45;;;;;;;;;;4906754;29;20024;-81
2021/04/18 15:52:27;;;;;;;12.55;7.63;;;;;;;;;;4904057;29;20034;-82
2021/04/18 15:55:13;;;;;;;11.02;8.43;;;;;;;;;;4905282;29;20028;-80
2021/04/18 15:57:59;;;;;;;14.40;8.00;;;;;;;;;;4907364;29;20135;-80
2021/04/18 16:00:44;;;;;;;13.00;8.15;;;;;;;;;;4907157;29;20055;-80
2021/04/18 16:03:30;;;;;;;16.33;9.00;;;;;;;;;;4892913;29;20012;-79
2021/04/18 16:06:16;;;;;;;13.15;8.43;;;;;;;;;;4890485;29;20395;-79
2021/04/18 16:09:02;;;;;;;11.35;7.93;;;;;;;;;;4896778;29;20564;-81
2021/04/18 16:11:48;;;;;;;11.82;8.07;;;;;;;;;;4903407;29;20416;-81
2021/04/18 16:14:35;;;;;;;12.70;7.93;;;;;;;;;;4907455;29;20020;-82
2021/04/18 16:17:21;;;;;;;14.38;8.82;;;;;;;;;;4907274;29;20028;-82
2021/04/18 16:20:07;;;;;;;11.55;8.18;;;;;;;;;;4906893;29;20051;-82
2021/04/18 16:22:53;;;;;;;12.95;8.52;;;;;;;;;;4910081;29;20499;-80
2021/04/18 16:25:53;;;;;;;15.48;8.68;;;;;;;;;;4899437;29;20031;-83
2021/04/18 16:28:59;;;;;;;16.42;9.43;;;;;;;;;;4904853;29;20028;-81